RYR13XJ LFOB-LRCL
Flight info
| Callsign | RYR13XJ |
|---|---|
| Flight time | 2h 3m |
| Altitude | 35000 |
| Route | BUBLI DCT LUVAL DCT BEGAR DCT TRA DCT GAMSA DCT TULSI DCT INPUL DCT PESAT DCT IZDUW DCT ATSOS |
| Aircraft | B738/M-SDE3FGILRWY/SB1 |
Departure
| Time | 2026-04-20 10:47 |
|---|---|
| Airport | Beauvais-Tillé airport (LFOB) |
Arrival
| Time | 2026-04-20 12:50 |
|---|---|
| Airport | Avram Iancu Cluj International Airport (LRCL) |
| Time | Latitude | Longitude | Altitude | Speed | Heading |
|---|---|---|---|---|---|
| 2026-04-20 10:30 | 49.45793 | 2.11295 | 346 ft | 0 kts | 311° |
| 2026-04-20 10:39 | 49.45782 | 2.11315 | 356 ft | 2 kts | 306° |
| 2026-04-20 10:39 | 49.45773 | 2.11336 | 355 ft | 2 kts | 297° |
| 2026-04-20 10:40 | 49.45767 | 2.11360 | 356 ft | 2 kts | 281° |
| 2026-04-20 10:40 | 49.45767 | 2.11385 | 351 ft | 2 kts | 251° |
| 2026-04-20 10:40 | 49.45775 | 2.11406 | 352 ft | 2 kts | 226° |
| 2026-04-20 10:40 | 49.45780 | 2.11415 | 350 ft | 0 kts | 221° |
| 2026-04-20 10:41 | 49.45781 | 2.11415 | 350 ft | 0 kts | 221° |
| 2026-04-20 10:42 | 49.45767 | 2.11397 | 351 ft | 6 kts | 221° |
| 2026-04-20 10:43 | 49.45729 | 2.11347 | 351 ft | 8 kts | 221° |
| 2026-04-20 10:43 | 49.45698 | 2.11282 | 349 ft | 8 kts | 260° |
| 2026-04-20 10:43 | 49.45715 | 2.11207 | 351 ft | 7 kts | 302° |
| 2026-04-20 10:43 | 49.45747 | 2.11134 | 346 ft | 9 kts | 304° |
| 2026-04-20 10:44 | 49.45781 | 2.11058 | 350 ft | 8 kts | 304° |
| 2026-04-20 10:44 | 49.45781 | 2.10987 | 354 ft | 6 kts | 232° |
| 2026-04-20 10:44 | 49.45765 | 2.10969 | 351 ft | 0 kts | 206° |
| 2026-04-20 10:45 | 49.45750 | 2.10958 | 349 ft | 6 kts | 207° |
| 2026-04-20 10:45 | 49.45694 | 2.10912 | 349 ft | 10 kts | 208° |
| 2026-04-20 10:46 | 49.45647 | 2.10852 | 350 ft | 7 kts | 220° |
| 2026-04-20 10:46 | 49.45613 | 2.10890 | 349 ft | 7 kts | 123° |
| 2026-04-20 10:46 | 49.45529 | 2.11081 | 345 ft | 54 kts | 123° |
| 2026-04-20 10:46 | 49.45172 | 2.11907 | 336 ft | 128 kts | 123° |
| 2026-04-20 10:47 | 49.44569 | 2.13268 | 558 ft | 166 kts | 118° |
| 2026-04-20 10:47 | 49.43966 | 2.14743 | 1456 ft | 159 kts | 107° |
| 2026-04-20 10:47 | 49.43757 | 2.16391 | 2353 ft | 158 kts | 86° |
| 2026-04-20 10:47 | 49.43874 | 2.18062 | 3237 ft | 159 kts | 80° |
| 2026-04-20 10:48 | 49.43991 | 2.19779 | 3901 ft | 176 kts | 82° |
| 2026-04-20 10:48 | 49.43973 | 2.21824 | 4118 ft | 210 kts | 104° |
| 2026-04-20 10:48 | 49.43239 | 2.23953 | 4369 ft | 241 kts | 117° |
| 2026-04-20 10:48 | 49.42338 | 2.26265 | 4839 ft | 260 kts | 117° |
| 2026-04-20 10:49 | 49.41400 | 2.28683 | 5583 ft | 269 kts | 117° |
| 2026-04-20 10:49 | 49.40438 | 2.31187 | 6395 ft | 274 kts | 118° |
| 2026-04-20 10:49 | 49.39468 | 2.33737 | 7185 ft | 281 kts | 117° |
| 2026-04-20 10:49 | 49.38471 | 2.36373 | 7944 ft | 287 kts | 118° |
| 2026-04-20 10:50 | 49.37464 | 2.39046 | 8786 ft | 293 kts | 117° |
| 2026-04-20 10:50 | 49.36420 | 2.41828 | 9610 ft | 299 kts | 118° |
| 2026-04-20 10:50 | 49.35378 | 2.44611 | 10423 ft | 303 kts | 118° |
| 2026-04-20 10:50 | 49.34297 | 2.47506 | 10777 ft | 325 kts | 118° |
| 2026-04-20 10:51 | 49.33147 | 2.50588 | 11009 ft | 348 kts | 118° |
| 2026-04-20 10:51 | 49.31925 | 2.53862 | 11579 ft | 358 kts | 119° |
| 2026-04-20 10:51 | 49.30673 | 2.57210 | 12280 ft | 365 kts | 119° |
| 2026-04-20 10:51 | 49.29402 | 2.60606 | 13034 ft | 370 kts | 119° |
| 2026-04-20 10:52 | 49.28110 | 2.64055 | 13766 ft | 376 kts | 119° |
| 2026-04-20 10:52 | 49.26800 | 2.67549 | 14450 ft | 381 kts | 120° |
| 2026-04-20 10:52 | 49.25467 | 2.71102 | 15064 ft | 388 kts | 120° |
| 2026-04-20 10:52 | 49.24112 | 2.74705 | 15724 ft | 393 kts | 120° |
| 2026-04-20 10:53 | 49.22740 | 2.78353 | 16364 ft | 398 kts | 120° |
| 2026-04-20 10:53 | 49.21347 | 2.82050 | 16998 ft | 404 kts | 120° |
| 2026-04-20 10:53 | 49.19935 | 2.85793 | 17636 ft | 409 kts | 120° |
| 2026-04-20 10:53 | 49.18499 | 2.89592 | 18253 ft | 415 kts | 120° |
| 2026-04-20 10:54 | 49.17047 | 2.93432 | 18822 ft | 420 kts | 120° |
| 2026-04-20 10:54 | 49.15573 | 2.97321 | 19370 ft | 425 kts | 121° |
| 2026-04-20 10:54 | 49.14081 | 3.01254 | 19906 ft | 430 kts | 121° |
| 2026-04-20 10:54 | 49.12571 | 3.05226 | 20431 ft | 435 kts | 121° |
| 2026-04-20 10:55 | 49.11043 | 3.09241 | 20975 ft | 440 kts | 121° |
| 2026-04-20 10:55 | 49.09492 | 3.13310 | 21428 ft | 447 kts | 121° |
| 2026-04-20 10:55 | 49.07917 | 3.17435 | 21936 ft | 452 kts | 121° |
| 2026-04-20 10:55 | 49.06330 | 3.21587 | 22462 ft | 456 kts | 121° |
| 2026-04-20 10:56 | 49.04722 | 3.25785 | 22978 ft | 461 kts | 121° |
| 2026-04-20 10:56 | 49.03097 | 3.30022 | 23439 ft | 465 kts | 122° |
| 2026-04-20 10:56 | 49.01459 | 3.34285 | 23976 ft | 467 kts | 122° |
| 2026-04-20 10:56 | 48.99933 | 3.38654 | 24433 ft | 470 kts | 114° |
| 2026-04-20 10:57 | 48.98753 | 3.43319 | 24892 ft | 473 kts | 110° |
| 2026-04-20 10:57 | 48.97655 | 3.48052 | 25321 ft | 476 kts | 109° |
| 2026-04-20 10:57 | 48.96570 | 3.52838 | 25742 ft | 480 kts | 109° |
| 2026-04-20 10:57 | 48.95475 | 3.57648 | 26136 ft | 483 kts | 109° |
| 2026-04-20 10:58 | 48.94357 | 3.62485 | 26543 ft | 486 kts | 110° |
| 2026-04-20 10:58 | 48.93218 | 3.67335 | 26963 ft | 488 kts | 110° |
| 2026-04-20 10:58 | 48.92059 | 3.72201 | 27363 ft | 491 kts | 110° |
| 2026-04-20 10:58 | 48.90882 | 3.77100 | 27738 ft | 494 kts | 110° |
| 2026-04-20 10:59 | 48.89694 | 3.82019 | 28107 ft | 497 kts | 111° |
| 2026-04-20 10:59 | 48.88496 | 3.86957 | 28471 ft | 500 kts | 111° |
| 2026-04-20 10:59 | 48.87292 | 3.91915 | 28839 ft | 502 kts | 111° |
| 2026-04-20 10:59 | 48.86077 | 3.96908 | 29199 ft | 505 kts | 111° |
| 2026-04-20 11:00 | 48.84855 | 4.01919 | 29536 ft | 508 kts | 111° |
| 2026-04-20 11:00 | 48.83625 | 4.06960 | 29865 ft | 510 kts | 111° |
| 2026-04-20 11:00 | 48.82387 | 4.12017 | 30199 ft | 513 kts | 111° |
| 2026-04-20 11:00 | 48.81141 | 4.17096 | 30474 ft | 515 kts | 111° |
| 2026-04-20 11:01 | 48.79890 | 4.22189 | 30803 ft | 515 kts | 111° |
| 2026-04-20 11:01 | 48.78635 | 4.27282 | 31157 ft | 515 kts | 111° |
| 2026-04-20 11:01 | 48.77380 | 4.32367 | 31499 ft | 515 kts | 111° |
| 2026-04-20 11:01 | 48.76124 | 4.37440 | 31904 ft | 514 kts | 111° |
| 2026-04-20 11:02 | 48.74871 | 4.42493 | 32337 ft | 511 kts | 111° |
| 2026-04-20 11:02 | 48.73620 | 4.47527 | 32757 ft | 509 kts | 111° |
| 2026-04-20 11:02 | 48.72373 | 4.52531 | 33166 ft | 507 kts | 111° |
| 2026-04-20 11:02 | 48.71128 | 4.57515 | 33555 ft | 505 kts | 111° |
| 2026-04-20 11:03 | 48.69886 | 4.62481 | 33940 ft | 503 kts | 111° |
| 2026-04-20 11:03 | 48.68647 | 4.67420 | 34312 ft | 501 kts | 111° |
| 2026-04-20 11:03 | 48.67409 | 4.72345 | 34600 ft | 500 kts | 111° |
| 2026-04-20 11:03 | 48.66187 | 4.77195 | 34857 ft | 500 kts | 111° |
| 2026-04-20 11:04 | 48.64947 | 4.82104 | 35066 ft | 501 kts | 111° |
| 2026-04-20 11:04 | 48.63698 | 4.87039 | 35239 ft | 503 kts | 111° |
| 2026-04-20 11:04 | 48.62447 | 4.91971 | 35529 ft | 502 kts | 111° |
| 2026-04-20 11:04 | 48.61199 | 4.96884 | 35861 ft | 499 kts | 111° |
| 2026-04-20 11:05 | 48.59955 | 5.01767 | 36171 ft | 498 kts | 111° |
| 2026-04-20 11:05 | 48.58711 | 5.06643 | 36422 ft | 497 kts | 111° |
| 2026-04-20 11:05 | 48.57465 | 5.11514 | 36652 ft | 497 kts | 111° |
| 2026-04-20 11:05 | 48.56217 | 5.16384 | 36906 ft | 497 kts | 111° |
| 2026-04-20 11:06 | 48.54969 | 5.21241 | 37177 ft | 496 kts | 111° |
| 2026-04-20 11:06 | 48.53721 | 5.26091 | 37340 ft | 497 kts | 111° |
| 2026-04-20 11:06 | 48.52465 | 5.30961 | 37551 ft | 496 kts | 112° |
| 2026-04-20 11:06 | 48.51219 | 5.35781 | 37949 ft | 492 kts | 112° |
| 2026-04-20 11:07 | 48.49976 | 5.40578 | 38243 ft | 490 kts | 112° |
| 2026-04-20 11:07 | 48.48733 | 5.45366 | 38431 ft | 491 kts | 112° |
| 2026-04-20 11:07 | 48.47486 | 5.50157 | 38554 ft | 492 kts | 112° |
| 2026-04-20 11:07 | 48.46234 | 5.54962 | 38717 ft | 493 kts | 112° |
| 2026-04-20 11:08 | 48.44980 | 5.59761 | 38893 ft | 492 kts | 112° |
| 2026-04-20 11:08 | 48.43726 | 5.64550 | 39061 ft | 491 kts | 112° |
| 2026-04-20 11:08 | 48.42472 | 5.69331 | 39122 ft | 493 kts | 112° |
| 2026-04-20 11:09 | 48.39938 | 5.78963 | 39136 ft | 495 kts | 112° |
| 2026-04-20 11:09 | 48.37397 | 5.88577 | 39127 ft | 494 kts | 112° |
| 2026-04-20 11:10 | 48.34853 | 5.98166 | 39129 ft | 493 kts | 112° |
| 2026-04-20 11:10 | 48.32309 | 6.07717 | 39133 ft | 492 kts | 112° |
| 2026-04-20 11:11 | 48.29827 | 6.16992 | 39134 ft | 491 kts | 112° |
| 2026-04-20 11:11 | 48.27203 | 6.26762 | 39129 ft | 491 kts | 112° |
| 2026-04-20 11:12 | 48.24641 | 6.36262 | 39116 ft | 491 kts | 112° |
| 2026-04-20 11:12 | 48.22069 | 6.45762 | 39127 ft | 491 kts | 112° |
| 2026-04-20 11:13 | 48.19487 | 6.55255 | 39107 ft | 492 kts | 112° |
| 2026-04-20 11:13 | 48.16892 | 6.64762 | 39104 ft | 493 kts | 112° |
| 2026-04-20 11:14 | 48.14286 | 6.74268 | 39105 ft | 494 kts | 112° |
| 2026-04-20 11:14 | 48.11666 | 6.83789 | 39122 ft | 495 kts | 112° |
| 2026-04-20 11:15 | 48.09051 | 6.93254 | 39108 ft | 496 kts | 112° |
| 2026-04-20 11:15 | 48.06409 | 7.02779 | 39104 ft | 497 kts | 112° |
| 2026-04-20 11:16 | 48.03753 | 7.12316 | 39103 ft | 497 kts | 113° |
| 2026-04-20 11:16 | 48.01090 | 7.21837 | 39111 ft | 497 kts | 113° |
| 2026-04-20 11:17 | 47.98420 | 7.31355 | 39094 ft | 497 kts | 113° |
| 2026-04-20 11:17 | 47.95739 | 7.40864 | 39106 ft | 497 kts | 113° |
| 2026-04-20 11:18 | 47.93048 | 7.50378 | 39111 ft | 498 kts | 113° |
| 2026-04-20 11:18 | 47.90355 | 7.59883 | 39108 ft | 498 kts | 112° |
| 2026-04-20 11:19 | 47.87879 | 7.69515 | 39102 ft | 498 kts | 110° |
| 2026-04-20 11:19 | 47.85504 | 7.79196 | 39092 ft | 498 kts | 110° |
| 2026-04-20 11:20 | 47.83090 | 7.88860 | 39086 ft | 498 kts | 110° |
| 2026-04-20 11:20 | 47.80641 | 7.98496 | 39083 ft | 498 kts | 110° |
| 2026-04-20 11:21 | 47.78179 | 8.08120 | 39078 ft | 497 kts | 110° |
| 2026-04-20 11:21 | 47.75715 | 8.17717 | 39081 ft | 497 kts | 110° |
| 2026-04-20 11:22 | 47.73247 | 8.27297 | 39077 ft | 496 kts | 111° |
| 2026-04-20 11:22 | 47.70778 | 8.36849 | 39074 ft | 495 kts | 111° |
| 2026-04-20 11:23 | 47.68318 | 8.46390 | 39087 ft | 495 kts | 109° |
| 2026-04-20 11:23 | 47.66100 | 8.56064 | 39091 ft | 495 kts | 108° |
| 2026-04-20 11:24 | 47.63958 | 8.65773 | 39101 ft | 496 kts | 108° |
| 2026-04-20 11:24 | 47.61772 | 8.75488 | 39098 ft | 497 kts | 108° |
| 2026-04-20 11:25 | 47.59543 | 8.85216 | 39096 ft | 499 kts | 108° |
| 2026-04-20 11:25 | 47.57295 | 8.94953 | 39091 ft | 500 kts | 108° |
| 2026-04-20 11:26 | 47.55036 | 9.04700 | 39086 ft | 501 kts | 108° |
| 2026-04-20 11:26 | 47.52765 | 9.14462 | 39090 ft | 502 kts | 109° |
| 2026-04-20 11:27 | 47.50870 | 9.22572 | 39091 ft | 502 kts | 109° |
| 2026-04-20 11:27 | 47.48582 | 9.32331 | 39086 ft | 502 kts | 109° |
| 2026-04-20 11:28 | 47.46289 | 9.42066 | 39097 ft | 501 kts | 109° |
| 2026-04-20 11:28 | 47.43994 | 9.51773 | 39104 ft | 500 kts | 109° |
| 2026-04-20 11:29 | 47.41925 | 9.61556 | 39102 ft | 497 kts | 98° |
| 2026-04-20 11:29 | 47.41693 | 9.71651 | 39101 ft | 490 kts | 79° |
| 2026-04-20 11:30 | 47.43040 | 9.81424 | 39096 ft | 485 kts | 73° |
| 2026-04-20 11:30 | 47.44541 | 9.91138 | 39080 ft | 485 kts | 73° |
| 2026-04-20 11:31 | 47.45994 | 10.00860 | 39090 ft | 485 kts | 74° |
| 2026-04-20 11:31 | 47.47393 | 10.10534 | 39074 ft | 485 kts | 74° |
| 2026-04-20 11:32 | 47.48793 | 10.20348 | 39066 ft | 484 kts | 75° |
| 2026-04-20 11:32 | 47.50165 | 10.30027 | 39072 ft | 484 kts | 75° |
| 2026-04-20 11:33 | 47.51539 | 10.39767 | 39076 ft | 484 kts | 75° |
| 2026-04-20 11:33 | 47.52907 | 10.49521 | 39075 ft | 484 kts | 75° |
| 2026-04-20 11:34 | 47.54267 | 10.59289 | 39073 ft | 486 kts | 75° |
| 2026-04-20 11:34 | 47.55623 | 10.69081 | 39067 ft | 486 kts | 75° |
| 2026-04-20 11:35 | 47.56971 | 10.78892 | 39071 ft | 486 kts | 75° |
| 2026-04-20 11:35 | 47.58310 | 10.88707 | 39065 ft | 486 kts | 75° |
| 2026-04-20 11:36 | 47.59641 | 10.98522 | 39064 ft | 486 kts | 75° |
| 2026-04-20 11:36 | 47.60964 | 11.08343 | 39066 ft | 485 kts | 75° |
| 2026-04-20 11:37 | 47.62274 | 11.18145 | 39068 ft | 484 kts | 75° |
| 2026-04-20 11:37 | 47.64220 | 11.32816 | 39071 ft | 483 kts | 76° |
| 2026-04-20 11:38 | 47.65497 | 11.42527 | 39107 ft | 483 kts | 76° |
| 2026-04-20 11:38 | 47.66776 | 11.52332 | 39084 ft | 484 kts | 76° |
| 2026-04-20 11:39 | 47.68048 | 11.62139 | 39081 ft | 484 kts | 76° |
| 2026-04-20 11:39 | 47.69312 | 11.71954 | 39070 ft | 484 kts | 76° |
| 2026-04-20 11:40 | 47.70581 | 11.81759 | 39085 ft | 483 kts | 75° |
| 2026-04-20 11:40 | 47.72017 | 11.91510 | 39086 ft | 484 kts | 74° |
| 2026-04-20 11:41 | 47.73500 | 12.01269 | 39076 ft | 485 kts | 75° |
| 2026-04-20 11:41 | 47.74957 | 12.11067 | 39084 ft | 486 kts | 75° |
| 2026-04-20 11:42 | 47.76392 | 12.20899 | 39084 ft | 487 kts | 75° |
| 2026-04-20 11:42 | 47.77818 | 12.30760 | 39111 ft | 489 kts | 75° |
| 2026-04-20 11:43 | 47.79242 | 12.40664 | 39092 ft | 490 kts | 75° |
| 2026-04-20 11:43 | 47.80662 | 12.50589 | 39085 ft | 491 kts | 75° |
| 2026-04-20 11:44 | 47.82074 | 12.60534 | 39082 ft | 491 kts | 76° |
| 2026-04-20 11:44 | 47.83478 | 12.70475 | 39079 ft | 491 kts | 76° |
| 2026-04-20 11:45 | 47.84094 | 12.80595 | 39098 ft | 493 kts | 89° |
| 2026-04-20 11:45 | 47.83919 | 12.90810 | 39089 ft | 494 kts | 90° |
| 2026-04-20 11:46 | 47.83716 | 13.01016 | 39086 ft | 493 kts | 90° |
| 2026-04-20 11:46 | 47.83553 | 13.11221 | 39090 ft | 493 kts | 90° |
| 2026-04-20 11:47 | 47.83409 | 13.21427 | 39087 ft | 493 kts | 90° |
| 2026-04-20 11:47 | 47.83263 | 13.31644 | 39087 ft | 494 kts | 90° |
| 2026-04-20 11:48 | 47.83105 | 13.41862 | 39084 ft | 494 kts | 90° |
| 2026-04-20 11:48 | 47.82937 | 13.52014 | 39074 ft | 494 kts | 90° |
| 2026-04-20 11:49 | 47.82758 | 13.62309 | 39077 ft | 495 kts | 90° |
| 2026-04-20 11:49 | 47.82571 | 13.72489 | 39074 ft | 495 kts | 90° |
| 2026-04-20 11:50 | 47.82374 | 13.82738 | 39081 ft | 496 kts | 90° |
| 2026-04-20 11:50 | 47.82168 | 13.93005 | 39072 ft | 497 kts | 90° |
| 2026-04-20 11:51 | 47.81952 | 14.03270 | 39066 ft | 497 kts | 90° |
| 2026-04-20 11:51 | 47.81725 | 14.13632 | 39045 ft | 498 kts | 90° |
| 2026-04-20 11:52 | 47.81492 | 14.23846 | 39056 ft | 497 kts | 90° |
| 2026-04-20 11:52 | 47.81249 | 14.34132 | 39049 ft | 498 kts | 90° |
| 2026-04-20 11:53 | 47.80996 | 14.44414 | 39049 ft | 497 kts | 91° |
| 2026-04-20 11:53 | 47.80735 | 14.54677 | 39049 ft | 496 kts | 91° |
| 2026-04-20 11:54 | 47.80464 | 14.64933 | 39047 ft | 495 kts | 91° |
| 2026-04-20 11:54 | 47.80183 | 14.75226 | 39053 ft | 495 kts | 91° |
| 2026-04-20 11:55 | 47.79896 | 14.85433 | 39054 ft | 494 kts | 91° |
| 2026-04-20 11:55 | 47.79602 | 14.95558 | 39064 ft | 492 kts | 91° |
| 2026-04-20 11:56 | 47.79297 | 15.05734 | 39050 ft | 493 kts | 91° |
| 2026-04-20 11:56 | 47.78984 | 15.15917 | 39034 ft | 493 kts | 91° |
| 2026-04-20 11:57 | 47.78661 | 15.26102 | 39033 ft | 494 kts | 91° |
| 2026-04-20 11:57 | 47.78328 | 15.36312 | 39032 ft | 495 kts | 91° |
| 2026-04-20 11:58 | 47.77986 | 15.46547 | 39036 ft | 497 kts | 91° |
| 2026-04-20 11:58 | 47.77632 | 15.56816 | 39020 ft | 497 kts | 91° |
| 2026-04-20 11:59 | 47.77272 | 15.67078 | 39030 ft | 498 kts | 91° |
| 2026-04-20 11:59 | 47.76901 | 15.77373 | 39032 ft | 499 kts | 92° |
| 2026-04-20 12:00 | 47.76518 | 15.87674 | 39022 ft | 499 kts | 92° |
| 2026-04-20 12:00 | 47.76125 | 15.97985 | 39015 ft | 500 kts | 92° |
| 2026-04-20 12:01 | 47.75724 | 16.08287 | 39012 ft | 499 kts | 92° |
| 2026-04-20 12:01 | 47.75315 | 16.18577 | 39016 ft | 498 kts | 92° |
| 2026-04-20 12:02 | 47.74898 | 16.28831 | 39023 ft | 497 kts | 92° |
| 2026-04-20 12:02 | 47.74473 | 16.39053 | 39014 ft | 495 kts | 92° |
| 2026-04-20 12:03 | 47.74040 | 16.49249 | 39014 ft | 493 kts | 92° |
| 2026-04-20 12:03 | 47.73600 | 16.59406 | 39018 ft | 492 kts | 92° |
| 2026-04-20 12:04 | 47.73152 | 16.69532 | 39019 ft | 490 kts | 92° |
| 2026-04-20 12:04 | 47.72697 | 16.79619 | 39022 ft | 489 kts | 92° |
| 2026-04-20 12:05 | 47.72234 | 16.89707 | 39020 ft | 489 kts | 92° |
| 2026-04-20 12:05 | 47.71763 | 16.99771 | 39022 ft | 489 kts | 92° |
| 2026-04-20 12:06 | 47.71270 | 17.09856 | 39025 ft | 490 kts | 93° |
| 2026-04-20 12:06 | 47.70712 | 17.19884 | 39017 ft | 491 kts | 93° |
| 2026-04-20 12:07 | 47.70129 | 17.30001 | 39024 ft | 492 kts | 93° |
| 2026-04-20 12:07 | 47.69543 | 17.40136 | 39020 ft | 493 kts | 93° |
| 2026-04-20 12:08 | 47.68952 | 17.50289 | 39028 ft | 494 kts | 94° |
| 2026-04-20 12:08 | 47.68353 | 17.60450 | 39022 ft | 494 kts | 94° |
| 2026-04-20 12:09 | 47.67746 | 17.70604 | 39018 ft | 494 kts | 94° |
| 2026-04-20 12:09 | 47.67129 | 17.80757 | 39020 ft | 494 kts | 94° |
| 2026-04-20 12:10 | 47.66504 | 17.90889 | 39025 ft | 493 kts | 94° |
| 2026-04-20 12:10 | 47.65870 | 18.01005 | 39031 ft | 492 kts | 95° |
| 2026-04-20 12:11 | 47.65229 | 18.11115 | 39017 ft | 492 kts | 95° |
| 2026-04-20 12:11 | 47.64580 | 18.21210 | 39021 ft | 492 kts | 95° |
| 2026-04-20 12:12 | 47.63922 | 18.31294 | 39011 ft | 491 kts | 95° |
| 2026-04-20 12:12 | 47.63255 | 18.41375 | 39009 ft | 491 kts | 95° |
| 2026-04-20 12:13 | 47.62579 | 18.51459 | 39000 ft | 492 kts | 95° |
| 2026-04-20 12:13 | 47.61894 | 18.61545 | 38998 ft | 492 kts | 95° |
| 2026-04-20 12:14 | 47.61199 | 18.71641 | 39000 ft | 493 kts | 95° |
| 2026-04-20 12:14 | 47.60614 | 18.80038 | 39000 ft | 492 kts | 95° |
| 2026-04-20 12:15 | 47.59903 | 18.90132 | 38976 ft | 493 kts | 95° |
| 2026-04-20 12:15 | 47.59184 | 19.00210 | 38972 ft | 492 kts | 95° |
| 2026-04-20 12:16 | 47.58456 | 19.10292 | 38965 ft | 492 kts | 95° |
| 2026-04-20 12:16 | 47.57719 | 19.20359 | 38969 ft | 491 kts | 95° |
| 2026-04-20 12:17 | 47.56976 | 19.30397 | 38963 ft | 490 kts | 95° |
| 2026-04-20 12:17 | 47.56225 | 19.40416 | 38964 ft | 489 kts | 96° |
| 2026-04-20 12:18 | 47.55468 | 19.50401 | 38962 ft | 488 kts | 96° |
| 2026-04-20 12:18 | 47.54702 | 19.60384 | 38956 ft | 487 kts | 96° |
| 2026-04-20 12:19 | 47.53935 | 19.70266 | 38951 ft | 486 kts | 96° |
| 2026-04-20 12:19 | 47.53157 | 19.80188 | 38935 ft | 485 kts | 96° |
| 2026-04-20 12:20 | 47.52370 | 19.90101 | 38937 ft | 485 kts | 96° |
| 2026-04-20 12:20 | 47.51575 | 20.00004 | 38932 ft | 484 kts | 96° |
| 2026-04-20 12:21 | 47.50773 | 20.09886 | 38926 ft | 485 kts | 96° |
| 2026-04-20 12:21 | 47.49970 | 20.19682 | 38935 ft | 485 kts | 96° |
| 2026-04-20 12:22 | 47.49149 | 20.29580 | 38929 ft | 486 kts | 97° |
| 2026-04-20 12:22 | 47.48318 | 20.39504 | 38925 ft | 486 kts | 97° |
| 2026-04-20 12:23 | 47.47477 | 20.49426 | 38922 ft | 487 kts | 97° |
| 2026-04-20 12:23 | 47.46628 | 20.59356 | 38915 ft | 487 kts | 97° |
| 2026-04-20 12:24 | 47.46198 | 20.64334 | 38769 ft | 491 kts | 97° |
| 2026-04-20 12:24 | 47.45762 | 20.69371 | 38208 ft | 495 kts | 97° |
| 2026-04-20 12:24 | 47.45324 | 20.74394 | 37617 ft | 493 kts | 97° |
| 2026-04-20 12:24 | 47.44886 | 20.79404 | 37086 ft | 490 kts | 97° |
| 2026-04-20 12:25 | 47.44446 | 20.84396 | 36509 ft | 489 kts | 97° |
| 2026-04-20 12:25 | 47.44006 | 20.89373 | 35943 ft | 488 kts | 97° |
| 2026-04-20 12:25 | 47.43564 | 20.94342 | 35317 ft | 489 kts | 97° |
| 2026-04-20 12:25 | 47.43118 | 20.99335 | 34665 ft | 491 kts | 98° |
| 2026-04-20 12:26 | 47.42669 | 21.04328 | 34159 ft | 489 kts | 98° |
| 2026-04-20 12:26 | 47.42220 | 21.09302 | 33618 ft | 487 kts | 98° |
| 2026-04-20 12:26 | 47.41772 | 21.14238 | 33118 ft | 483 kts | 98° |
| 2026-04-20 12:26 | 47.41326 | 21.19135 | 32639 ft | 479 kts | 98° |
| 2026-04-20 12:27 | 47.40881 | 21.23989 | 32185 ft | 475 kts | 98° |
| 2026-04-20 12:27 | 47.40438 | 21.28802 | 31719 ft | 471 kts | 98° |
| 2026-04-20 12:27 | 47.39998 | 21.33560 | 31286 ft | 466 kts | 98° |
| 2026-04-20 12:27 | 47.39560 | 21.38285 | 30855 ft | 462 kts | 98° |
| 2026-04-20 12:28 | 47.39128 | 21.42907 | 30440 ft | 459 kts | 98° |
| 2026-04-20 12:28 | 47.38687 | 21.47611 | 30000 ft | 455 kts | 98° |
| 2026-04-20 12:28 | 47.38259 | 21.52161 | 29516 ft | 452 kts | 98° |
| 2026-04-20 12:28 | 47.37827 | 21.56733 | 29024 ft | 448 kts | 98° |
| 2026-04-20 12:29 | 47.37397 | 21.61254 | 28582 ft | 443 kts | 99° |
| 2026-04-20 12:29 | 47.36970 | 21.65736 | 28129 ft | 439 kts | 99° |
| 2026-04-20 12:29 | 47.36539 | 21.70230 | 27686 ft | 434 kts | 99° |
| 2026-04-20 12:29 | 47.36117 | 21.74620 | 27258 ft | 430 kts | 99° |
| 2026-04-20 12:30 | 47.35704 | 21.78911 | 26828 ft | 427 kts | 99° |
| 2026-04-20 12:30 | 47.35277 | 21.83225 | 26402 ft | 423 kts | 101° |
| 2026-04-20 12:30 | 47.34623 | 21.87431 | 25941 ft | 420 kts | 106° |
| 2026-04-20 12:30 | 47.33827 | 21.91565 | 25463 ft | 418 kts | 108° |
| 2026-04-20 12:31 | 47.32991 | 21.95662 | 25005 ft | 416 kts | 108° |
| 2026-04-20 12:31 | 47.32152 | 21.99742 | 24544 ft | 415 kts | 108° |
| 2026-04-20 12:31 | 47.31326 | 22.03802 | 24107 ft | 413 kts | 108° |
| 2026-04-20 12:31 | 47.30513 | 22.07854 | 23630 ft | 412 kts | 108° |
| 2026-04-20 12:32 | 47.29710 | 22.11904 | 23132 ft | 411 kts | 107° |
| 2026-04-20 12:32 | 47.28916 | 22.15932 | 22647 ft | 409 kts | 107° |
| 2026-04-20 12:32 | 47.28128 | 22.19942 | 22181 ft | 406 kts | 107° |
| 2026-04-20 12:32 | 47.27347 | 22.23920 | 21728 ft | 403 kts | 107° |
| 2026-04-20 12:33 | 47.26570 | 22.27871 | 21287 ft | 400 kts | 107° |
| 2026-04-20 12:33 | 47.25797 | 22.31796 | 20847 ft | 398 kts | 107° |
| 2026-04-20 12:33 | 47.25028 | 22.35697 | 20411 ft | 395 kts | 107° |
| 2026-04-20 12:33 | 47.24261 | 22.39571 | 19977 ft | 393 kts | 107° |
| 2026-04-20 12:34 | 47.23498 | 22.43421 | 19553 ft | 391 kts | 107° |
| 2026-04-20 12:34 | 47.22738 | 22.47249 | 19105 ft | 389 kts | 107° |
| 2026-04-20 12:34 | 47.21978 | 22.51065 | 18694 ft | 388 kts | 107° |
| 2026-04-20 12:34 | 47.21221 | 22.54860 | 18270 ft | 386 kts | 107° |
| 2026-04-20 12:35 | 47.20464 | 22.58649 | 17777 ft | 386 kts | 107° |
| 2026-04-20 12:35 | 47.19708 | 22.62425 | 17321 ft | 384 kts | 107° |
| 2026-04-20 12:35 | 47.18956 | 22.66171 | 16880 ft | 381 kts | 107° |
| 2026-04-20 12:35 | 47.18208 | 22.69895 | 16451 ft | 379 kts | 107° |
| 2026-04-20 12:36 | 47.17464 | 22.73589 | 16038 ft | 376 kts | 107° |
| 2026-04-20 12:36 | 47.16723 | 22.77266 | 15614 ft | 374 kts | 107° |
| 2026-04-20 12:36 | 47.15984 | 22.80923 | 15206 ft | 372 kts | 107° |
| 2026-04-20 12:36 | 47.15248 | 22.84554 | 14780 ft | 370 kts | 108° |
| 2026-04-20 12:37 | 47.14517 | 22.88164 | 14372 ft | 368 kts | 108° |
| 2026-04-20 12:37 | 47.13786 | 22.91761 | 13967 ft | 367 kts | 108° |
| 2026-04-20 12:37 | 47.13056 | 22.95342 | 13536 ft | 365 kts | 108° |
| 2026-04-20 12:37 | 47.12329 | 22.98910 | 13089 ft | 364 kts | 108° |
| 2026-04-20 12:38 | 47.11603 | 23.02462 | 12666 ft | 362 kts | 107° |
| 2026-04-20 12:38 | 47.10881 | 23.05988 | 12235 ft | 360 kts | 107° |
| 2026-04-20 12:38 | 47.10161 | 23.09496 | 11820 ft | 358 kts | 107° |
| 2026-04-20 12:38 | 47.09455 | 23.12935 | 11431 ft | 356 kts | 107° |
| 2026-04-20 12:39 | 47.08039 | 23.19812 | 10715 ft | 349 kts | 107° |
| 2026-04-20 12:39 | 47.07339 | 23.23203 | 10440 ft | 344 kts | 108° |
| 2026-04-20 12:39 | 47.06654 | 23.26518 | 10285 ft | 335 kts | 108° |
| 2026-04-20 12:40 | 47.05987 | 23.29744 | 10119 ft | 327 kts | 108° |
| 2026-04-20 12:40 | 47.05334 | 23.32891 | 9997 ft | 319 kts | 108° |
| 2026-04-20 12:40 | 47.04686 | 23.36007 | 9690 ft | 319 kts | 108° |
| 2026-04-20 12:40 | 47.04038 | 23.39120 | 9356 ft | 320 kts | 108° |
| 2026-04-20 12:41 | 47.03389 | 23.42234 | 9031 ft | 319 kts | 108° |
| 2026-04-20 12:41 | 47.02740 | 23.45342 | 8700 ft | 318 kts | 108° |
| 2026-04-20 12:41 | 47.02102 | 23.48397 | 8381 ft | 309 kts | 108° |
| 2026-04-20 12:41 | 47.01475 | 23.51392 | 8103 ft | 307 kts | 108° |
| 2026-04-20 12:42 | 47.00847 | 23.54385 | 7797 ft | 307 kts | 108° |
| 2026-04-20 12:42 | 47.00218 | 23.57382 | 7495 ft | 309 kts | 108° |
| 2026-04-20 12:42 | 46.99590 | 23.60397 | 7183 ft | 310 kts | 108° |
| 2026-04-20 12:42 | 46.98955 | 23.63402 | 6870 ft | 309 kts | 108° |
| 2026-04-20 12:43 | 46.98318 | 23.66409 | 6554 ft | 308 kts | 108° |
| 2026-04-20 12:43 | 46.97692 | 23.69369 | 6253 ft | 301 kts | 108° |
| 2026-04-20 12:43 | 46.97083 | 23.72247 | 5949 ft | 292 kts | 108° |
| 2026-04-20 12:43 | 46.96485 | 23.75070 | 5665 ft | 289 kts | 108° |
| 2026-04-20 12:44 | 46.95893 | 23.77870 | 5441 ft | 285 kts | 108° |
| 2026-04-20 12:44 | 46.95314 | 23.80595 | 5315 ft | 276 kts | 108° |
| 2026-04-20 12:44 | 46.94750 | 23.83246 | 5189 ft | 269 kts | 108° |
| 2026-04-20 12:44 | 46.94208 | 23.85786 | 5105 ft | 254 kts | 110° |
| 2026-04-20 12:45 | 46.93305 | 23.87869 | 4957 ft | 236 kts | 144° |
| 2026-04-20 12:45 | 46.91951 | 23.89093 | 4898 ft | 227 kts | 161° |
| 2026-04-20 12:45 | 46.90470 | 23.89852 | 4797 ft | 224 kts | 167° |
| 2026-04-20 12:45 | 46.88976 | 23.90526 | 4604 ft | 224 kts | 167° |
| 2026-04-20 12:46 | 46.87528 | 23.91190 | 4394 ft | 218 kts | 167° |
| 2026-04-20 12:46 | 46.86096 | 23.91809 | 4212 ft | 211 kts | 176° |
| 2026-04-20 12:46 | 46.84771 | 23.91434 | 4131 ft | 188 kts | 223° |
| 2026-04-20 12:46 | 46.83980 | 23.89977 | 3978 ft | 185 kts | 244° |
| 2026-04-20 12:47 | 46.83382 | 23.88302 | 3727 ft | 186 kts | 250° |
| 2026-04-20 12:47 | 46.82850 | 23.86578 | 3477 ft | 187 kts | 251° |
| 2026-04-20 12:47 | 46.82400 | 23.84796 | 3224 ft | 189 kts | 255° |
| 2026-04-20 12:47 | 46.81986 | 23.82967 | 2974 ft | 190 kts | 256° |
| 2026-04-20 12:48 | 46.81575 | 23.81119 | 2715 ft | 192 kts | 256° |
| 2026-04-20 12:48 | 46.81167 | 23.79303 | 2450 ft | 182 kts | 256° |
| 2026-04-20 12:48 | 46.80788 | 23.77605 | 2218 ft | 168 kts | 256° |
| 2026-04-20 12:48 | 46.80438 | 23.76051 | 2013 ft | 155 kts | 256° |
| 2026-04-20 12:49 | 46.80119 | 23.74611 | 1744 ft | 146 kts | 256° |
| 2026-04-20 12:49 | 46.79811 | 23.73226 | 1531 ft | 141 kts | 257° |
| 2026-04-20 12:49 | 46.79511 | 23.71836 | 1356 ft | 146 kts | 254° |
| 2026-04-20 12:49 | 46.79188 | 23.70435 | 1183 ft | 146 kts | 255° |
| 2026-04-20 12:50 | 46.78877 | 23.69026 | 1032 ft | 143 kts | 253° |
| 2026-04-20 12:50 | 46.78654 | 23.68033 | 1033 ft | 51 kts | 252° |
| 2026-04-20 12:50 | 46.78564 | 23.67633 | 1032 ft | 25 kts | 251° |
| 2026-04-20 12:50 | 46.78511 | 23.67400 | 1031 ft | 23 kts | 252° |
| 2026-04-20 12:51 | 46.78465 | 23.67214 | 1032 ft | 16 kts | 231° |
| 2026-04-20 12:51 | 46.78369 | 23.67242 | 1032 ft | 16 kts | 137° |
| 2026-04-20 12:51 | 46.78343 | 23.67384 | 1032 ft | 15 kts | 77° |
| 2026-04-20 12:51 | 46.78366 | 23.67545 | 1032 ft | 18 kts | 78° |
| 2026-04-20 12:52 | 46.78394 | 23.67753 | 1032 ft | 24 kts | 78° |
| 2026-04-20 12:52 | 46.78430 | 23.68012 | 1032 ft | 28 kts | 78° |
| 2026-04-20 12:52 | 46.78467 | 23.68284 | 1032 ft | 27 kts | 78° |
| 2026-04-20 12:52 | 46.78499 | 23.68526 | 1032 ft | 14 kts | 79° |
| 2026-04-20 12:53 | 46.78489 | 23.68636 | 1032 ft | 11 kts | 152° |
| 2026-04-20 12:53 | 46.78413 | 23.68661 | 1032 ft | 11 kts | 169° |
| 2026-04-20 12:53 | 46.78344 | 23.68680 | 1032 ft | 6 kts | 169° |
| 2026-04-20 12:53 | 46.78314 | 23.68671 | 1032 ft | 2 kts | 213° |
| 2026-04-20 12:54 | 46.78311 | 23.68667 | 1032 ft | 0 kts | 212° |